Main page
METAR-TAF:

METAR-TAF

Airports :

Hans Christian Andersen Airport

Odense, Denmark

latitude: 55-29N, longitude: 010-20E, elevation: 17 m

Current weather observation

The report was made 9 minutes ago, at 10:20 UTC
Wind 3 kt from the North
Temperature 19°C
Humidity 68%
Pressure 1015 hPa
Visibility 10 km or more
Few clouds at a height of 2800 ft
Broken clouds at a height of 4100 ft

METAR: EKOD 121020Z 36003KT 9999 FEW028 BKN041 19/13 Q1015

Time: 12:29 (10:29 UTC)

Forecast

The report was made 1 hour and 28 minutes ago, at 09:01 UTC
Forecast valid from 12 at 09 UTC to 12 at 16 UTC
Wind 5 kt from the South
Visibility 10 km or more
Scattered clouds at a height of 3000 ft
Becoming
from 12 at 11 UTC to 12 at 14 UTC
Wind 12 kt from the Northeast

TAF: EKOD 120901Z 1209/1216 17005KT 9999 SCT030 BECMG 1211/1214 05012KT

Weather observations and forecasts of more than 4000 airports (METAR and TAF reports).

The available stations are represented by yellow and red dots on the map.

Hover mouse over dot to see the name of the station.

Then click to see weather observations and forecasts.

To change the map : click on the green buttons with a black cross to zoom in, on the green button with a dash to zoom out, or on the green arrows for adjacent maps.


METAR-TAF: